sensor_id;sensor_type;location;lat;lon;timestamp;P1;durP1;ratioP1;P2;durP2;ratioP2
50739;SDS011;36704;52.524;17.580;2023-02-01T00:01:35;11.43;;;2.15;;
50739;SDS011;36704;52.524;17.580;2023-02-01T00:04:22;10.90;;;2.58;;
50739;SDS011;36704;52.524;17.580;2023-02-01T00:07:09;5.88;;;2.08;;
50739;SDS011;36704;52.524;17.580;2023-02-01T00:09:59;8.93;;;2.85;;
50739;SDS011;36704;52.524;17.580;2023-02-01T00:12:45;7.40;;;1.90;;
50739;SDS011;36704;52.524;17.580;2023-02-01T00:15:32;8.63;;;2.03;;
50739;SDS011;36704;52.524;17.580;2023-02-01T00:18:19;9.82;;;2.33;;
50739;SDS011;36704;52.524;17.580;2023-02-01T00:21:05;9.27;;;2.00;;
50739;SDS011;36704;52.524;17.580;2023-02-01T00:23:52;10.20;;;2.10;;
50739;SDS011;36704;52.524;17.580;2023-02-01T00:26:43;6.40;;;1.70;;
50739;SDS011;36704;52.524;17.580;2023-02-01T00:29:30;11.35;;;2.10;;
50739;SDS011;36704;52.524;17.580;2023-02-01T00:32:17;7.35;;;1.70;;
50739;SDS011;36704;52.524;17.580;2023-02-01T00:35:04;9.57;;;2.35;;
50739;SDS011;36704;52.524;17.580;2023-02-01T00:37:52;9.57;;;1.83;;
50739;SDS011;36704;52.524;17.580;2023-02-01T00:40:38;14.80;;;3.40;;
50739;SDS011;36704;52.524;17.580;2023-02-01T00:43:26;9.35;;;2.42;;
50739;SDS011;36704;52.524;17.580;2023-02-01T00:46:13;15.25;;;2.60;;
50739;SDS011;36704;52.524;17.580;2023-02-01T00:49:01;12.98;;;2.13;;
50739;SDS011;36704;52.524;17.580;2023-02-01T00:51:50;15.07;;;2.13;;
50739;SDS011;36704;52.524;17.580;2023-02-01T00:54:36;8.95;;;2.10;;
50739;SDS011;36704;52.524;17.580;2023-02-01T00:57:23;11.40;;;2.40;;
50739;SDS011;36704;52.524;17.580;2023-02-01T01:00:10;12.98;;;2.70;;
50739;SDS011;36704;52.524;17.580;2023-02-01T01:02:58;10.30;;;2.45;;
50739;SDS011;36704;52.524;17.580;2023-02-01T01:05:45;12.85;;;2.05;;
50739;SDS011;36704;52.524;17.580;2023-02-01T01:08:45;11.43;;;2.22;;
50739;SDS011;36704;52.524;17.580;2023-02-01T01:11:33;16.90;;;2.65;;
50739;SDS011;36704;52.524;17.580;2023-02-01T01:14:23;14.98;;;2.65;;
50739;SDS011;36704;52.524;17.580;2023-02-01T01:17:09;21.63;;;2.22;;
50739;SDS011;36704;52.524;17.580;2023-02-01T01:19:56;14.95;;;2.20;;
50739;SDS011;36704;52.524;17.580;2023-02-01T01:22:45;10.27;;;1.65;;
50739;SDS011;36704;52.524;17.580;2023-02-01T01:25:38;7.13;;;2.75;;
50739;SDS011;36704;52.524;17.580;2023-02-01T01:28:26;11.48;;;2.17;;
50739;SDS011;36704;52.524;17.580;2023-02-01T01:31:13;13.93;;;3.05;;
50739;SDS011;36704;52.524;17.580;2023-02-01T01:34:01;11.77;;;2.05;;
50739;SDS011;36704;52.524;17.580;2023-02-01T01:36:48;13.13;;;2.63;;
50739;SDS011;36704;52.524;17.580;2023-02-01T01:39:35;9.63;;;2.50;;
50739;SDS011;36704;52.524;17.580;2023-02-01T01:42:22;9.63;;;1.70;;
50739;SDS011;36704;52.524;17.580;2023-02-01T01:48:19;11.93;;;2.00;;
50739;SDS011;36704;52.524;17.580;2023-02-01T01:51:09;13.18;;;2.33;;
50739;SDS011;36704;52.524;17.580;2023-02-01T01:54:14;6.75;;;2.33;;
50739;SDS011;36704;52.524;17.580;2023-02-01T01:57:08;16.88;;;2.22;;
50739;SDS011;36704;52.524;17.580;2023-02-01T02:00:02;5.85;;;2.60;;
50739;SDS011;36704;52.524;17.580;2023-02-01T02:06:26;12.35;;;2.13;;
50739;SDS011;36704;52.524;17.580;2023-02-01T02:09:14;11.63;;;2.30;;
50739;SDS011;36704;52.524;17.580;2023-02-01T02:23:42;19.30;;;2.78;;
50739;SDS011;36704;52.524;17.580;2023-02-01T02:36:13;12.30;;;3.25;;
50739;SDS011;36704;52.524;17.580;2023-02-01T02:39:08;10.73;;;1.98;;
50739;SDS011;36704;52.524;17.580;2023-02-01T02:45:36;7.50;;;2.00;;
50739;SDS011;36704;52.524;17.580;2023-02-01T02:48:43;11.63;;;1.85;;
50739;SDS011;36704;52.524;17.580;2023-02-01T02:51:43;11.70;;;2.08;;
50739;SDS011;36704;52.524;17.580;2023-02-01T02:54:51;13.23;;;2.25;;
50739;SDS011;36704;52.524;17.580;2023-02-01T02:57:40;9.73;;;2.22;;
50739;SDS011;36704;52.524;17.580;2023-02-01T03:00:47;11.45;;;2.53;;
50739;SDS011;36704;52.524;17.580;2023-02-01T03:03:52;14.50;;;2.50;;
50739;SDS011;36704;52.524;17.580;2023-02-01T03:06:56;6.75;;;1.73;;
50739;SDS011;36704;52.524;17.580;2023-02-01T03:09:43;9.73;;;2.58;;
50739;SDS011;36704;52.524;17.580;2023-02-01T03:12:33;10.90;;;3.03;;
50739;SDS011;36704;52.524;17.580;2023-02-01T03:15:56;6.50;;;1.90;;
50739;SDS011;36704;52.524;17.580;2023-02-01T03:18:48;11.73;;;2.15;;
50739;SDS011;36704;52.524;17.580;2023-02-01T03:21:50;7.10;;;1.95;;
50739;SDS011;36704;52.524;17.580;2023-02-01T03:28:03;10.07;;;2.17;;
50739;SDS011;36704;52.524;17.580;2023-02-01T03:30:52;12.90;;;2.42;;
50739;SDS011;36704;52.524;17.580;2023-02-01T03:33:39;16.40;;;2.22;;
50739;SDS011;36704;52.524;17.580;2023-02-01T03:36:29;12.55;;;2.58;;
50739;SDS011;36704;52.524;17.580;2023-02-01T03:39:19;16.63;;;2.33;;
50739;SDS011;36704;52.524;17.580;2023-02-01T03:42:21;13.30;;;2.38;;
50739;SDS011;36704;52.524;17.580;2023-02-01T03:45:13;15.15;;;2.70;;
50739;SDS011;36704;52.524;17.580;2023-02-01T03:48:05;8.80;;;2.15;;
50739;SDS011;36704;52.524;17.580;2023-02-01T03:50:53;13.43;;;2.13;;
50739;SDS011;36704;52.524;17.580;2023-02-01T03:53:42;16.20;;;2.25;;
50739;SDS011;36704;52.524;17.580;2023-02-01T03:56:32;12.55;;;2.20;;
50739;SDS011;36704;52.524;17.580;2023-02-01T03:59:22;13.83;;;2.10;;
50739;SDS011;36704;52.524;17.580;2023-02-01T04:02:10;13.07;;;3.08;;
50739;SDS011;36704;52.524;17.580;2023-02-01T04:04:57;13.60;;;2.38;;
50739;SDS011;36704;52.524;17.580;2023-02-01T04:07:43;16.85;;;2.60;;
50739;SDS011;36704;52.524;17.580;2023-02-01T04:10:30;13.23;;;2.13;;
50739;SDS011;36704;52.524;17.580;2023-02-01T04:13:20;14.93;;;2.15;;
50739;SDS011;36704;52.524;17.580;2023-02-01T04:16:08;14.70;;;3.83;;
50739;SDS011;36704;52.524;17.580;2023-02-01T04:18:54;25.13;;;4.05;;
50739;SDS011;36704;52.524;17.580;2023-02-01T04:21:40;10.05;;;2.95;;
50739;SDS011;36704;52.524;17.580;2023-02-01T04:24:27;15.07;;;2.40;;
50739;SDS011;36704;52.524;17.580;2023-02-01T04:27:13;13.95;;;2.50;;
50739;SDS011;36704;52.524;17.580;2023-02-01T04:30:00;12.70;;;2.72;;
50739;SDS011;36704;52.524;17.580;2023-02-01T04:32:47;19.33;;;5.28;;
50739;SDS011;36704;52.524;17.580;2023-02-01T04:35:33;12.23;;;2.42;;
50739;SDS011;36704;52.524;17.580;2023-02-01T04:38:20;9.10;;;2.10;;
50739;SDS011;36704;52.524;17.580;2023-02-01T04:41:06;17.05;;;3.25;;
50739;SDS011;36704;52.524;17.580;2023-02-01T04:43:53;12.77;;;2.78;;
50739;SDS011;36704;52.524;17.580;2023-02-01T04:46:39;9.43;;;1.92;;
50739;SDS011;36704;52.524;17.580;2023-02-01T04:49:26;14.88;;;2.83;;
50739;SDS011;36704;52.524;17.580;2023-02-01T04:52:12;14.07;;;2.42;;
50739;SDS011;36704;52.524;17.580;2023-02-01T04:54:59;16.40;;;2.08;;
50739;SDS011;36704;52.524;17.580;2023-02-01T04:57:46;9.52;;;2.65;;
50739;SDS011;36704;52.524;17.580;2023-02-01T05:00:33;12.25;;;2.70;;
50739;SDS011;36704;52.524;17.580;2023-02-01T05:03:20;13.73;;;2.58;;
50739;SDS011;36704;52.524;17.580;2023-02-01T05:06:06;13.38;;;2.05;;
50739;SDS011;36704;52.524;17.580;2023-02-01T05:08:53;15.15;;;2.55;;
50739;SDS011;36704;52.524;17.580;2023-02-01T05:11:40;13.80;;;3.15;;
50739;SDS011;36704;52.524;17.580;2023-02-01T05:14:46;14.90;;;3.13;;
50739;SDS011;36704;52.524;17.580;2023-02-01T05:17:34;11.07;;;2.88;;
50739;SDS011;36704;52.524;17.580;2023-02-01T05:20:20;12.88;;;3.05;;
50739;SDS011;36704;52.524;17.580;2023-02-01T05:23:07;12.45;;;2.30;;
50739;SDS011;36704;52.524;17.580;2023-02-01T05:25:57;12.48;;;2.40;;
50739;SDS011;36704;52.524;17.580;2023-02-01T05:28:45;16.63;;;2.60;;
50739;SDS011;36704;52.524;17.580;2023-02-01T05:31:32;13.10;;;2.25;;
50739;SDS011;36704;52.524;17.580;2023-02-01T05:34:19;11.90;;;2.35;;
50739;SDS011;36704;52.524;17.580;2023-02-01T05:37:05;15.80;;;2.47;;
50739;SDS011;36704;52.524;17.580;2023-02-01T05:39:52;15.50;;;4.28;;
50739;SDS011;36704;52.524;17.580;2023-02-01T05:42:39;23.42;;;8.60;;
50739;SDS011;36704;52.524;17.580;2023-02-01T05:45:28;8.60;;;2.45;;
50739;SDS011;36704;52.524;17.580;2023-02-01T05:48:15;16.65;;;3.63;;
50739;SDS011;36704;52.524;17.580;2023-02-01T05:51:01;15.18;;;2.22;;
50739;SDS011;36704;52.524;17.580;2023-02-01T05:53:48;15.95;;;3.38;;
50739;SDS011;36704;52.524;17.580;2023-02-01T05:56:34;20.48;;;4.07;;
50739;SDS011;36704;52.524;17.580;2023-02-01T05:59:21;17.25;;;3.67;;
50739;SDS011;36704;52.524;17.580;2023-02-01T06:02:07;16.42;;;4.43;;
50739;SDS011;36704;52.524;17.580;2023-02-01T06:04:55;12.98;;;3.92;;
50739;SDS011;36704;52.524;17.580;2023-02-01T06:17:33;8.70;;;2.35;;
50739;SDS011;36704;52.524;17.580;2023-02-01T06:20:20;7.40;;;1.77;;
50739;SDS011;36704;52.524;17.580;2023-02-01T06:23:07;10.32;;;2.40;;
50739;SDS011;36704;52.524;17.580;2023-02-01T06:25:58;13.70;;;2.63;;
50739;SDS011;36704;52.524;17.580;2023-02-01T06:28:46;9.32;;;2.13;;
50739;SDS011;36704;52.524;17.580;2023-02-01T06:31:33;14.30;;;2.97;;
50739;SDS011;36704;52.524;17.580;2023-02-01T06:34:40;11.02;;;3.58;;
50739;SDS011;36704;52.524;17.580;2023-02-01T06:37:26;15.25;;;3.40;;
50739;SDS011;36704;52.524;17.580;2023-02-01T06:40:16;20.92;;;3.08;;
50739;SDS011;36704;52.524;17.580;2023-02-01T06:43:03;12.00;;;2.65;;
50739;SDS011;36704;52.524;17.580;2023-02-01T06:45:49;15.45;;;4.03;;
50739;SDS011;36704;52.524;17.580;2023-02-01T06:48:36;12.88;;;3.55;;
50739;SDS011;36704;52.524;17.580;2023-02-01T06:51:26;17.40;;;4.10;;
50739;SDS011;36704;52.524;17.580;2023-02-01T06:54:14;8.82;;;2.55;;
50739;SDS011;36704;52.524;17.580;2023-02-01T06:57:00;12.95;;;2.85;;
50739;SDS011;36704;52.524;17.580;2023-02-01T06:59:47;23.05;;;4.88;;
50739;SDS011;36704;52.524;17.580;2023-02-01T07:02:33;20.70;;;5.72;;
50739;SDS011;36704;52.524;17.580;2023-02-01T07:05:20;18.77;;;5.05;;
50739;SDS011;36704;52.524;17.580;2023-02-01T07:08:07;18.95;;;4.72;;
50739;SDS011;36704;52.524;17.580;2023-02-01T07:10:54;22.35;;;5.38;;
50739;SDS011;36704;52.524;17.580;2023-02-01T07:13:40;23.13;;;7.03;;
50739;SDS011;36704;52.524;17.580;2023-02-01T07:16:27;18.48;;;5.78;;
50739;SDS011;36704;52.524;17.580;2023-02-01T07:19:13;19.52;;;5.50;;
50739;SDS011;36704;52.524;17.580;2023-02-01T07:21:59;18.63;;;5.30;;
50739;SDS011;36704;52.524;17.580;2023-02-01T07:24:46;19.83;;;5.25;;
50739;SDS011;36704;52.524;17.580;2023-02-01T07:27:34;20.20;;;5.53;;
50739;SDS011;36704;52.524;17.580;2023-02-01T07:30:21;23.33;;;6.13;;
50739;SDS011;36704;52.524;17.580;2023-02-01T07:33:08;15.27;;;3.67;;
50739;SDS011;36704;52.524;17.580;2023-02-01T07:35:56;22.15;;;4.88;;
50739;SDS011;36704;52.524;17.580;2023-02-01T07:38:43;25.10;;;6.53;;
50739;SDS011;36704;52.524;17.580;2023-02-01T07:41:29;26.65;;;6.50;;
50739;SDS011;36704;52.524;17.580;2023-02-01T07:44:16;19.33;;;5.20;;
50739;SDS011;36704;52.524;17.580;2023-02-01T07:47:08;17.10;;;4.93;;
50739;SDS011;36704;52.524;17.580;2023-02-01T07:49:55;19.85;;;4.40;;
50739;SDS011;36704;52.524;17.580;2023-02-01T07:52:41;18.75;;;4.50;;
50739;SDS011;36704;52.524;17.580;2023-02-01T07:55:28;21.23;;;3.80;;
50739;SDS011;36704;52.524;17.580;2023-02-01T07:58:15;16.27;;;4.30;;
50739;SDS011;36704;52.524;17.580;2023-02-01T08:01:04;19.83;;;6.43;;
50739;SDS011;36704;52.524;17.580;2023-02-01T08:04:06;20.17;;;7.30;;
50739;SDS011;36704;52.524;17.580;2023-02-01T08:06:52;15.20;;;3.88;;
50739;SDS011;36704;52.524;17.580;2023-02-01T08:09:39;17.77;;;4.20;;
50739;SDS011;36704;52.524;17.580;2023-02-01T08:12:28;25.73;;;7.20;;
50739;SDS011;36704;52.524;17.580;2023-02-01T08:15:15;25.48;;;12.20;;
50739;SDS011;36704;52.524;17.580;2023-02-01T08:18:09;32.92;;;14.32;;
50739;SDS011;36704;52.524;17.580;2023-02-01T08:21:06;52.15;;;27.92;;
50739;SDS011;36704;52.524;17.580;2023-02-01T08:23:54;66.72;;;30.75;;
50739;SDS011;36704;52.524;17.580;2023-02-01T08:26:42;69.07;;;31.40;;
50739;SDS011;36704;52.524;17.580;2023-02-01T08:29:29;73.80;;;30.83;;
50739;SDS011;36704;52.524;17.580;2023-02-01T08:32:15;64.82;;;26.98;;
50739;SDS011;36704;52.524;17.580;2023-02-01T08:35:18;64.63;;;20.70;;
50739;SDS011;36704;52.524;17.580;2023-02-01T08:38:06;35.50;;;11.55;;
50739;SDS011;36704;52.524;17.580;2023-02-01T08:40:54;40.78;;;12.55;;
50739;SDS011;36704;52.524;17.580;2023-02-01T08:43:51;28.05;;;7.93;;
50739;SDS011;36704;52.524;17.580;2023-02-01T08:46:48;33.03;;;13.73;;
50739;SDS011;36704;52.524;17.580;2023-02-01T08:49:39;24.30;;;5.95;;
50739;SDS011;36704;52.524;17.580;2023-02-01T08:52:25;28.45;;;7.15;;
50739;SDS011;36704;52.524;17.580;2023-02-01T08:55:12;20.45;;;6.15;;
50739;SDS011;36704;52.524;17.580;2023-02-01T08:57:59;24.23;;;5.63;;
50739;SDS011;36704;52.524;17.580;2023-02-01T09:00:48;25.02;;;5.20;;
50739;SDS011;36704;52.524;17.580;2023-02-01T09:03:38;20.13;;;4.75;;
50739;SDS011;36704;52.524;17.580;2023-02-01T09:06:24;27.73;;;7.30;;
50739;SDS011;36704;52.524;17.580;2023-02-01T09:09:12;20.92;;;6.13;;
50739;SDS011;36704;52.524;17.580;2023-02-01T09:11:58;16.63;;;5.15;;
50739;SDS011;36704;52.524;17.580;2023-02-01T09:14:45;27.13;;;7.22;;
50739;SDS011;36704;52.524;17.580;2023-02-01T09:17:33;18.00;;;4.72;;
50739;SDS011;36704;52.524;17.580;2023-02-01T09:20:20;27.08;;;5.03;;
50739;SDS011;36704;52.524;17.580;2023-02-01T09:23:10;22.30;;;5.90;;
50739;SDS011;36704;52.524;17.580;2023-02-01T09:26:01;23.88;;;5.63;;
50739;SDS011;36704;52.524;17.580;2023-02-01T09:28:51;21.55;;;5.53;;
50739;SDS011;36704;52.524;17.580;2023-02-01T09:31:38;26.08;;;5.85;;
50739;SDS011;36704;52.524;17.580;2023-02-01T09:34:31;21.95;;;5.53;;
50739;SDS011;36704;52.524;17.580;2023-02-01T09:37:21;15.63;;;4.82;;
50739;SDS011;36704;52.524;17.580;2023-02-01T09:40:13;19.33;;;4.55;;
50739;SDS011;36704;52.524;17.580;2023-02-01T09:49:20;25.40;;;7.40;;
50739;SDS011;36704;52.524;17.580;2023-02-01T09:52:09;25.60;;;6.75;;
50739;SDS011;36704;52.524;17.580;2023-02-01T09:55:02;17.20;;;4.60;;
50739;SDS011;36704;52.524;17.580;2023-02-01T09:57:53;41.83;;;13.77;;
50739;SDS011;36704;52.524;17.580;2023-02-01T10:14:49;18.70;;;7.47;;
50739;SDS011;36704;52.524;17.580;2023-02-01T10:20:57;17.88;;;6.03;;
50739;SDS011;36704;52.524;17.580;2023-02-01T10:24:35;15.27;;;5.57;;
50739;SDS011;36704;52.524;17.580;2023-02-01T10:27:22;11.55;;;4.72;;
50739;SDS011;36704;52.524;17.580;2023-02-01T10:33:07;15.93;;;4.90;;
50739;SDS011;36704;52.524;17.580;2023-02-01T10:36:05;16.85;;;4.00;;
50739;SDS011;36704;52.524;17.580;2023-02-01T10:39:06;8.05;;;3.72;;
50739;SDS011;36704;52.524;17.580;2023-02-01T10:41:54;12.10;;;5.25;;
50739;SDS011;36704;52.524;17.580;2023-02-01T10:44:42;27.67;;;7.63;;
50739;SDS011;36704;52.524;17.580;2023-02-01T10:47:31;26.55;;;6.40;;
50739;SDS011;36704;52.524;17.580;2023-02-01T10:53:42;47.58;;;12.32;;
50739;SDS011;36704;52.524;17.580;2023-02-01T10:56:37;43.42;;;10.55;;
50739;SDS011;36704;52.524;17.580;2023-02-01T10:59:24;90.40;;;17.48;;
50739;SDS011;36704;52.524;17.580;2023-02-01T11:02:15;62.78;;;12.93;;
50739;SDS011;36704;52.524;17.580;2023-02-01T11:05:10;31.40;;;7.05;;
50739;SDS011;36704;52.524;17.580;2023-02-01T11:07:58;50.55;;;10.85;;
50739;SDS011;36704;52.524;17.580;2023-02-01T11:10:46;11.60;;;3.78;;
50739;SDS011;36704;52.524;17.580;2023-02-01T11:13:36;26.95;;;8.55;;
50739;SDS011;36704;52.524;17.580;2023-02-01T11:16:33;24.13;;;5.75;;
50739;SDS011;36704;52.524;17.580;2023-02-01T11:19:26;29.77;;;6.88;;
50739;SDS011;36704;52.524;17.580;2023-02-01T11:22:19;9.52;;;3.17;;
50739;SDS011;36704;52.524;17.580;2023-02-01T11:25:07;19.42;;;6.15;;
50739;SDS011;36704;52.524;17.580;2023-02-01T11:27:55;31.33;;;7.63;;
50739;SDS011;36704;52.524;17.580;2023-02-01T11:30:44;92.93;;;16.95;;
50739;SDS011;36704;52.524;17.580;2023-02-01T11:33:32;48.80;;;10.77;;
50739;SDS011;36704;52.524;17.580;2023-02-01T11:36:22;63.05;;;17.63;;
50739;SDS011;36704;52.524;17.580;2023-02-01T11:48:13;45.05;;;13.10;;
50739;SDS011;36704;52.524;17.580;2023-02-01T11:54:10;30.30;;;9.70;;
50739;SDS011;36704;52.524;17.580;2023-02-01T11:57:03;13.55;;;5.75;;
50739;SDS011;36704;52.524;17.580;2023-02-01T12:12:49;27.60;;;8.70;;
50739;SDS011;36704;52.524;17.580;2023-02-01T12:16:11;40.22;;;10.05;;
50739;SDS011;36704;52.524;17.580;2023-02-01T12:22:14;17.23;;;4.45;;
50739;SDS011;36704;52.524;17.580;2023-02-01T12:28:39;12.98;;;4.60;;
50739;SDS011;36704;52.524;17.580;2023-02-01T12:32:05;14.70;;;4.63;;
50739;SDS011;36704;52.524;17.580;2023-02-01T12:35:13;20.58;;;6.97;;
50739;SDS011;36704;52.524;17.580;2023-02-01T12:41:53;11.07;;;5.32;;
50739;SDS011;36704;52.524;17.580;2023-02-01T12:47:38;18.10;;;6.47;;
50739;SDS011;36704;52.524;17.580;2023-02-01T12:50:30;13.23;;;4.65;;
50739;SDS011;36704;52.524;17.580;2023-02-01T12:53:36;20.65;;;5.80;;
50739;SDS011;36704;52.524;17.580;2023-02-01T12:56:41;11.23;;;2.95;;
50739;SDS011;36704;52.524;17.580;2023-02-01T12:59:39;17.42;;;6.43;;
50739;SDS011;36704;52.524;17.580;2023-02-01T13:02:37;26.58;;;9.00;;
50739;SDS011;36704;52.524;17.580;2023-02-01T13:06:13;19.92;;;6.32;;
50739;SDS011;36704;52.524;17.580;2023-02-01T13:08:48;21.60;;;8.93;;
50739;SDS011;36704;52.524;17.580;2023-02-01T13:11:44;14.32;;;5.55;;
50739;SDS011;36704;52.524;17.580;2023-02-01T13:14:37;27.60;;;10.10;;
50739;SDS011;36704;52.524;17.580;2023-02-01T13:17:32;21.65;;;7.43;;
50739;SDS011;36704;52.524;17.580;2023-02-01T13:20:34;26.02;;;9.75;;
50739;SDS011;36704;52.524;17.580;2023-02-01T13:23:24;38.40;;;15.07;;
50739;SDS011;36704;52.524;17.580;2023-02-01T13:26:16;24.33;;;9.85;;
50739;SDS011;36704;52.524;17.580;2023-02-01T13:29:04;23.27;;;9.90;;
50739;SDS011;36704;52.524;17.580;2023-02-01T13:31:55;26.17;;;8.77;;
50739;SDS011;36704;52.524;17.580;2023-02-01T13:35:15;23.20;;;11.68;;
50739;SDS011;36704;52.524;17.580;2023-02-01T13:41:29;17.77;;;8.85;;
50739;SDS011;36704;52.524;17.580;2023-02-01T13:47:29;57.90;;;25.90;;
50739;SDS011;36704;52.524;17.580;2023-02-01T13:53:14;36.58;;;15.63;;
50739;SDS011;36704;52.524;17.580;2023-02-01T14:09:14;9.93;;;4.00;;
50739;SDS011;36704;52.524;17.580;2023-02-01T14:16:18;15.98;;;4.70;;
50739;SDS011;36704;52.524;17.580;2023-02-01T14:19:24;17.15;;;5.80;;
50739;SDS011;36704;52.524;17.580;2023-02-01T14:22:53;15.75;;;6.35;;
50739;SDS011;36704;52.524;17.580;2023-02-01T14:31:13;28.98;;;15.73;;
50739;SDS011;36704;52.524;17.580;2023-02-01T14:37:54;18.35;;;8.40;;
50739;SDS011;36704;52.524;17.580;2023-02-01T14:47:42;14.70;;;4.80;;
50739;SDS011;36704;52.524;17.580;2023-02-01T14:50:21;17.00;;;6.40;;
50739;SDS011;36704;52.524;17.580;2023-02-01T14:53:35;10.80;;;3.55;;
50739;SDS011;36704;52.524;17.580;2023-02-01T14:56:27;13.55;;;4.25;;
50739;SDS011;36704;52.524;17.580;2023-02-01T14:59:20;16.00;;;4.47;;
50739;SDS011;36704;52.524;17.580;2023-02-01T15:02:23;22.33;;;6.00;;
50739;SDS011;36704;52.524;17.580;2023-02-01T15:05:31;16.85;;;5.80;;
50739;SDS011;36704;52.524;17.580;2023-02-01T15:08:30;14.48;;;4.85;;
50739;SDS011;36704;52.524;17.580;2023-02-01T15:11:19;36.38;;;10.70;;
50739;SDS011;36704;52.524;17.580;2023-02-01T15:14:12;21.33;;;6.53;;
50739;SDS011;36704;52.524;17.580;2023-02-01T15:17:18;23.25;;;10.40;;
50739;SDS011;36704;52.524;17.580;2023-02-01T15:20:14;27.92;;;9.73;;
50739;SDS011;36704;52.524;17.580;2023-02-01T15:23:04;31.60;;;11.27;;
50739;SDS011;36704;52.524;17.580;2023-02-01T15:25:54;29.58;;;9.90;;
50739;SDS011;36704;52.524;17.580;2023-02-01T15:28:41;20.30;;;6.10;;
50739;SDS011;36704;52.524;17.580;2023-02-01T15:31:34;17.52;;;5.78;;
50739;SDS011;36704;52.524;17.580;2023-02-01T15:34:45;14.65;;;4.35;;
50739;SDS011;36704;52.524;17.580;2023-02-01T15:37:36;13.77;;;5.25;;
50739;SDS011;36704;52.524;17.580;2023-02-01T15:40:27;12.82;;;4.78;;
50739;SDS011;36704;52.524;17.580;2023-02-01T15:43:13;17.38;;;5.60;;
50739;SDS011;36704;52.524;17.580;2023-02-01T15:48:56;18.48;;;5.80;;
50739;SDS011;36704;52.524;17.580;2023-02-01T15:51:44;14.13;;;5.00;;
50739;SDS011;36704;52.524;17.580;2023-02-01T15:54:46;13.93;;;4.55;;
50739;SDS011;36704;52.524;17.580;2023-02-01T15:57:38;18.30;;;6.45;;
50739;SDS011;36704;52.524;17.580;2023-02-01T16:00:27;16.00;;;4.80;;
50739;SDS011;36704;52.524;17.580;2023-02-01T16:09:54;25.92;;;6.80;;
50739;SDS011;36704;52.524;17.580;2023-02-01T16:15:33;12.43;;;3.90;;
50739;SDS011;36704;52.524;17.580;2023-02-01T16:18:20;14.23;;;5.55;;
50739;SDS011;36704;52.524;17.580;2023-02-01T16:21:07;12.95;;;4.65;;
50739;SDS011;36704;52.524;17.580;2023-02-01T16:23:57;11.98;;;4.13;;
50739;SDS011;36704;52.524;17.580;2023-02-01T16:26:45;12.48;;;3.90;;
50739;SDS011;36704;52.524;17.580;2023-02-01T16:29:32;14.52;;;4.00;;
50739;SDS011;36704;52.524;17.580;2023-02-01T16:32:19;13.73;;;5.35;;
50739;SDS011;36704;52.524;17.580;2023-02-01T16:35:15;13.45;;;5.72;;
50739;SDS011;36704;52.524;17.580;2023-02-01T16:38:12;34.55;;;10.50;;
50739;SDS011;36704;52.524;17.580;2023-02-01T16:43:51;18.55;;;6.50;;
50739;SDS011;36704;52.524;17.580;2023-02-01T16:46:40;24.90;;;9.20;;
50739;SDS011;36704;52.524;17.580;2023-02-01T16:49:29;20.98;;;7.82;;
50739;SDS011;36704;52.524;17.580;2023-02-01T16:52:20;24.60;;;9.50;;
50739;SDS011;36704;52.524;17.580;2023-02-01T16:55:14;18.67;;;6.68;;
50739;SDS011;36704;52.524;17.580;2023-02-01T16:58:02;16.02;;;7.20;;
50739;SDS011;36704;52.524;17.580;2023-02-01T17:00:48;13.88;;;6.38;;
50739;SDS011;36704;52.524;17.580;2023-02-01T17:03:37;11.35;;;5.28;;
50739;SDS011;36704;52.524;17.580;2023-02-01T17:06:24;11.52;;;4.78;;
50739;SDS011;36704;52.524;17.580;2023-02-01T17:09:11;15.00;;;4.95;;
50739;SDS011;36704;52.524;17.580;2023-02-01T17:11:57;13.38;;;5.30;;
50739;SDS011;36704;52.524;17.580;2023-02-01T17:14:44;13.48;;;4.55;;
50739;SDS011;36704;52.524;17.580;2023-02-01T17:17:37;10.77;;;4.30;;
50739;SDS011;36704;52.524;17.580;2023-02-01T17:20:24;15.98;;;5.43;;
50739;SDS011;36704;52.524;17.580;2023-02-01T17:23:13;15.52;;;6.43;;
50739;SDS011;36704;52.524;17.580;2023-02-01T17:26:02;19.98;;;6.28;;
50739;SDS011;36704;52.524;17.580;2023-02-01T17:28:48;25.30;;;7.40;;
50739;SDS011;36704;52.524;17.580;2023-02-01T17:31:39;21.45;;;6.60;;
50739;SDS011;36704;52.524;17.580;2023-02-01T17:34:26;29.83;;;11.05;;
50739;SDS011;36704;52.524;17.580;2023-02-01T17:40:13;56.67;;;18.02;;
50739;SDS011;36704;52.524;17.580;2023-02-01T17:43:00;48.75;;;16.30;;
50739;SDS011;36704;52.524;17.580;2023-02-01T17:49:39;24.63;;;8.93;;
50739;SDS011;36704;52.524;17.580;2023-02-01T17:52:26;20.13;;;6.95;;
50739;SDS011;36704;52.524;17.580;2023-02-01T17:55:18;15.52;;;6.13;;
50739;SDS011;36704;52.524;17.580;2023-02-01T17:58:12;24.67;;;8.65;;
50739;SDS011;36704;52.524;17.580;2023-02-01T18:00:59;42.00;;;17.00;;
50739;SDS011;36704;52.524;17.580;2023-02-01T18:03:48;41.20;;;18.70;;
50739;SDS011;36704;52.524;17.580;2023-02-01T18:06:35;28.30;;;12.20;;
50739;SDS011;36704;52.524;17.580;2023-02-01T18:09:24;33.25;;;14.20;;
50739;SDS011;36704;52.524;17.580;2023-02-01T18:12:17;39.60;;;15.98;;
50739;SDS011;36704;52.524;17.580;2023-02-01T18:15:19;22.83;;;8.25;;
50739;SDS011;36704;52.524;17.580;2023-02-01T18:18:07;46.83;;;15.85;;
50739;SDS011;36704;52.524;17.580;2023-02-01T18:20:53;18.42;;;6.63;;
50739;SDS011;36704;52.524;17.580;2023-02-01T18:23:40;18.42;;;6.18;;
50739;SDS011;36704;52.524;17.580;2023-02-01T18:26:26;18.40;;;7.60;;
50739;SDS011;36704;52.524;17.580;2023-02-01T18:29:13;15.98;;;7.55;;
50739;SDS011;36704;52.524;17.580;2023-02-01T18:32:02;20.42;;;7.90;;
50739;SDS011;36704;52.524;17.580;2023-02-01T18:34:49;20.58;;;7.40;;
50739;SDS011;36704;52.524;17.580;2023-02-01T18:37:37;36.75;;;11.70;;
50739;SDS011;36704;52.524;17.580;2023-02-01T18:40:26;70.82;;;29.20;;
50739;SDS011;36704;52.524;17.580;2023-02-01T18:43:14;16.73;;;6.15;;
50739;SDS011;36704;52.524;17.580;2023-02-01T18:46:08;12.20;;;6.38;;
50739;SDS011;36704;52.524;17.580;2023-02-01T18:48:56;16.05;;;6.43;;
50739;SDS011;36704;52.524;17.580;2023-02-01T18:51:44;26.95;;;12.75;;
50739;SDS011;36704;52.524;17.580;2023-02-01T18:54:31;20.95;;;7.35;;
50739;SDS011;36704;52.524;17.580;2023-02-01T18:57:20;37.65;;;11.07;;
50739;SDS011;36704;52.524;17.580;2023-02-01T19:00:10;27.80;;;11.90;;
50739;SDS011;36704;52.524;17.580;2023-02-01T19:02:58;26.73;;;11.25;;
50739;SDS011;36704;52.524;17.580;2023-02-01T19:05:48;17.65;;;9.07;;
50739;SDS011;36704;52.524;17.580;2023-02-01T19:08:36;18.25;;;8.77;;
50739;SDS011;36704;52.524;17.580;2023-02-01T19:11:24;23.98;;;10.32;;
50739;SDS011;36704;52.524;17.580;2023-02-01T19:14:11;32.53;;;15.30;;
50739;SDS011;36704;52.524;17.580;2023-02-01T19:16:59;19.70;;;7.65;;
50739;SDS011;36704;52.524;17.580;2023-02-01T19:19:46;22.63;;;9.45;;
50739;SDS011;36704;52.524;17.580;2023-02-01T19:22:35;11.43;;;5.10;;
50739;SDS011;36704;52.524;17.580;2023-02-01T19:25:25;31.95;;;12.90;;
50739;SDS011;36704;52.524;17.580;2023-02-01T19:28:16;23.85;;;9.32;;
50739;SDS011;36704;52.524;17.580;2023-02-01T19:31:03;43.53;;;18.45;;
50739;SDS011;36704;52.524;17.580;2023-02-01T19:33:52;17.85;;;7.88;;
50739;SDS011;36704;52.524;17.580;2023-02-01T19:36:39;11.60;;;7.20;;